sensor_id;sensor_type;location;lat;lon;timestamp;temperature;humidity
53748;DHT22;39655;53.210;5.768;2023-04-15T00:01:18;7.60;80.70
53748;DHT22;39655;53.210;5.768;2023-04-15T00:03:45;7.50;80.60
53748;DHT22;39655;53.210;5.768;2023-04-15T00:06:12;7.50;80.70
53748;DHT22;39655;53.210;5.768;2023-04-15T00:08:38;7.40;80.80
53748;DHT22;39655;53.210;5.768;2023-04-15T00:11:04;7.40;81.10
53748;DHT22;39655;53.210;5.768;2023-04-15T00:13:31;7.30;81.30
53748;DHT22;39655;53.210;5.768;2023-04-15T00:15:58;7.40;81.30
53748;DHT22;39655;53.210;5.768;2023-04-15T00:18:24;7.30;81.30
53748;DHT22;39655;53.210;5.768;2023-04-15T00:20:50;7.20;81.40
53748;DHT22;39655;53.210;5.768;2023-04-15T00:23:15;7.20;81.60
53748;DHT22;39655;53.210;5.768;2023-04-15T00:25:41;7.20;81.90
53748;DHT22;39655;53.210;5.768;2023-04-15T00:28:07;7.20;81.70
53748;DHT22;39655;53.210;5.768;2023-04-15T00:30:33;7.20;81.70
53748;DHT22;39655;53.210;5.768;2023-04-15T00:32:59;7.20;82.20
53748;DHT22;39655;53.210;5.768;2023-04-15T00:35:26;7.20;82.50
53748;DHT22;39655;53.210;5.768;2023-04-15T00:37:52;7.10;82.30
53748;DHT22;39655;53.210;5.768;2023-04-15T00:40:20;7.10;82.30
53748;DHT22;39655;53.210;5.768;2023-04-15T00:42:46;7.10;82.40
53748;DHT22;39655;53.210;5.768;2023-04-15T00:45:11;7.10;82.70
53748;DHT22;39655;53.210;5.768;2023-04-15T00:47:39;7.00;82.70
53748;DHT22;39655;53.210;5.768;2023-04-15T00:50:06;7.00;83.00
53748;DHT22;39655;53.210;5.768;2023-04-15T00:52:32;7.00;83.00
53748;DHT22;39655;53.210;5.768;2023-04-15T00:54:59;6.90;82.90
53748;DHT22;39655;53.210;5.768;2023-04-15T00:57:25;6.90;83.20
53748;DHT22;39655;53.210;5.768;2023-04-15T00:59:51;6.90;83.50
53748;DHT22;39655;53.210;5.768;2023-04-15T01:02:18;6.80;83.70
53748;DHT22;39655;53.210;5.768;2023-04-15T01:04:44;6.80;83.80
53748;DHT22;39655;53.210;5.768;2023-04-15T01:07:10;6.70;84.00
53748;DHT22;39655;53.210;5.768;2023-04-15T01:09:36;6.70;83.90
53748;DHT22;39655;53.210;5.768;2023-04-15T01:12:01;6.70;83.90
53748;DHT22;39655;53.210;5.768;2023-04-15T01:14:28;6.70;84.10
53748;DHT22;39655;53.210;5.768;2023-04-15T01:16:54;6.70;84.20
53748;DHT22;39655;53.210;5.768;2023-04-15T01:19:20;6.70;84.30
53748;DHT22;39655;53.210;5.768;2023-04-15T01:21:46;6.60;84.60
53748;DHT22;39655;53.210;5.768;2023-04-15T01:24:12;6.60;84.60
53748;DHT22;39655;53.210;5.768;2023-04-15T01:26:40;6.60;84.90
53748;DHT22;39655;53.210;5.768;2023-04-15T01:29:06;6.60;84.90
53748;DHT22;39655;53.210;5.768;2023-04-15T01:31:33;6.50;85.00
53748;DHT22;39655;53.210;5.768;2023-04-15T01:33:59;6.50;85.10
53748;DHT22;39655;53.210;5.768;2023-04-15T01:36:25;6.50;85.40
53748;DHT22;39655;53.210;5.768;2023-04-15T01:38:50;6.50;85.60
53748;DHT22;39655;53.210;5.768;2023-04-15T01:41:29;6.50;85.50
53748;DHT22;39655;53.210;5.768;2023-04-15T01:43:55;6.50;85.80
53748;DHT22;39655;53.210;5.768;2023-04-15T01:46:21;6.50;85.90
53748;DHT22;39655;53.210;5.768;2023-04-15T01:48:47;6.50;86.20
53748;DHT22;39655;53.210;5.768;2023-04-15T01:51:13;6.40;86.00
53748;DHT22;39655;53.210;5.768;2023-04-15T01:53:38;6.40;86.10
53748;DHT22;39655;53.210;5.768;2023-04-15T01:56:04;6.40;86.30
53748;DHT22;39655;53.210;5.768;2023-04-15T01:58:31;6.40;86.40
53748;DHT22;39655;53.210;5.768;2023-04-15T02:00:57;6.40;86.30
53748;DHT22;39655;53.210;5.768;2023-04-15T02:03:24;6.40;86.80
53748;DHT22;39655;53.210;5.768;2023-04-15T02:05:50;6.40;86.80
53748;DHT22;39655;53.210;5.768;2023-04-15T02:08:16;6.40;86.80
53748;DHT22;39655;53.210;5.768;2023-04-15T02:10:41;6.40;87.00
53748;DHT22;39655;53.210;5.768;2023-04-15T02:13:07;6.30;87.00
53748;DHT22;39655;53.210;5.768;2023-04-15T02:15:33;6.30;87.10
53748;DHT22;39655;53.210;5.768;2023-04-15T02:17:59;6.20;87.20
53748;DHT22;39655;53.210;5.768;2023-04-15T02:20:25;6.20;87.40
53748;DHT22;39655;53.210;5.768;2023-04-15T02:22:51;6.20;87.30
53748;DHT22;39655;53.210;5.768;2023-04-15T02:25:17;6.20;87.40
53748;DHT22;39655;53.210;5.768;2023-04-15T02:27:43;6.10;87.60
53748;DHT22;39655;53.210;5.768;2023-04-15T02:30:09;6.10;87.60
53748;DHT22;39655;53.210;5.768;2023-04-15T02:32:35;6.10;87.50
53748;DHT22;39655;53.210;5.768;2023-04-15T02:35:06;6.10;87.50
53748;DHT22;39655;53.210;5.768;2023-04-15T02:37:35;6.00;87.50
53748;DHT22;39655;53.210;5.768;2023-04-15T02:40:07;6.00;87.60
53748;DHT22;39655;53.210;5.768;2023-04-15T02:42:34;6.00;87.90
53748;DHT22;39655;53.210;5.768;2023-04-15T02:45:00;6.00;88.00
53748;DHT22;39655;53.210;5.768;2023-04-15T02:47:26;6.00;88.10
53748;DHT22;39655;53.210;5.768;2023-04-15T02:49:51;6.00;88.20
53748;DHT22;39655;53.210;5.768;2023-04-15T02:52:17;6.00;88.40
53748;DHT22;39655;53.210;5.768;2023-04-15T02:54:43;5.90;88.20
53748;DHT22;39655;53.210;5.768;2023-04-15T02:57:08;5.90;88.20
53748;DHT22;39655;53.210;5.768;2023-04-15T02:59:36;5.90;88.40
53748;DHT22;39655;53.210;5.768;2023-04-15T03:02:01;5.90;88.40
53748;DHT22;39655;53.210;5.768;2023-04-15T03:04:27;5.80;88.50
53748;DHT22;39655;53.210;5.768;2023-04-15T03:06:54;5.80;88.50
53748;DHT22;39655;53.210;5.768;2023-04-15T03:09:21;5.70;88.50
53748;DHT22;39655;53.210;5.768;2023-04-15T03:11:46;5.70;88.50
53748;DHT22;39655;53.210;5.768;2023-04-15T03:14:12;5.70;88.50
53748;DHT22;39655;53.210;5.768;2023-04-15T03:16:38;5.70;88.60
53748;DHT22;39655;53.210;5.768;2023-04-15T03:19:04;5.70;88.60
53748;DHT22;39655;53.210;5.768;2023-04-15T03:21:30;5.70;88.70
53748;DHT22;39655;53.210;5.768;2023-04-15T03:23:56;5.60;88.80
53748;DHT22;39655;53.210;5.768;2023-04-15T03:26:29;5.70;88.80
53748;DHT22;39655;53.210;5.768;2023-04-15T03:28:55;5.70;88.90
53748;DHT22;39655;53.210;5.768;2023-04-15T03:31:21;5.70;88.90
53748;DHT22;39655;53.210;5.768;2023-04-15T03:33:47;5.60;88.90
53748;DHT22;39655;53.210;5.768;2023-04-15T03:36:13;5.60;88.90
53748;DHT22;39655;53.210;5.768;2023-04-15T03:38:39;5.60;88.90
53748;DHT22;39655;53.210;5.768;2023-04-15T03:41:05;5.60;89.10
53748;DHT22;39655;53.210;5.768;2023-04-15T03:43:30;5.60;89.20
53748;DHT22;39655;53.210;5.768;2023-04-15T03:45:56;5.60;89.10
53748;DHT22;39655;53.210;5.768;2023-04-15T03:48:22;5.60;89.20
53748;DHT22;39655;53.210;5.768;2023-04-15T03:50:47;5.60;89.20
53748;DHT22;39655;53.210;5.768;2023-04-15T03:53:14;5.50;89.50
53748;DHT22;39655;53.210;5.768;2023-04-15T03:55:40;5.40;89.30
53748;DHT22;39655;53.210;5.768;2023-04-15T03:58:05;5.40;89.30
53748;DHT22;39655;53.210;5.768;2023-04-15T04:00:31;5.40;89.40
53748;DHT22;39655;53.210;5.768;2023-04-15T04:02:56;5.40;89.40
53748;DHT22;39655;53.210;5.768;2023-04-15T04:05:22;5.30;89.30
53748;DHT22;39655;53.210;5.768;2023-04-15T04:07:48;5.30;89.40
53748;DHT22;39655;53.210;5.768;2023-04-15T04:10:14;5.30;89.50
53748;DHT22;39655;53.210;5.768;2023-04-15T04:12:40;5.30;89.60
53748;DHT22;39655;53.210;5.768;2023-04-15T04:15:06;5.30;89.60
53748;DHT22;39655;53.210;5.768;2023-04-15T04:17:32;5.20;89.50
53748;DHT22;39655;53.210;5.768;2023-04-15T04:19:58;5.20;89.60
53748;DHT22;39655;53.210;5.768;2023-04-15T04:22:24;5.20;89.80
53748;DHT22;39655;53.210;5.768;2023-04-15T04:24:50;5.20;89.90
53748;DHT22;39655;53.210;5.768;2023-04-15T04:27:16;5.20;89.80
53748;DHT22;39655;53.210;5.768;2023-04-15T04:29:42;5.20;89.80
53748;DHT22;39655;53.210;5.768;2023-04-15T04:32:07;5.20;89.80
53748;DHT22;39655;53.210;5.768;2023-04-15T04:34:33;5.20;89.80
53748;DHT22;39655;53.210;5.768;2023-04-15T04:36:59;5.20;89.70
53748;DHT22;39655;53.210;5.768;2023-04-15T04:39:24;5.20;89.90
53748;DHT22;39655;53.210;5.768;2023-04-15T04:41:50;5.10;89.80
53748;DHT22;39655;53.210;5.768;2023-04-15T04:44:18;5.10;90.10
53748;DHT22;39655;53.210;5.768;2023-04-15T04:46:44;5.20;90.10
53748;DHT22;39655;53.210;5.768;2023-04-15T04:49:10;5.10;90.10
53748;DHT22;39655;53.210;5.768;2023-04-15T04:51:35;5.10;90.00
53748;DHT22;39655;53.210;5.768;2023-04-15T04:54:01;5.10;90.10
53748;DHT22;39655;53.210;5.768;2023-04-15T04:56:27;5.10;90.10
53748;DHT22;39655;53.210;5.768;2023-04-15T04:58:53;5.10;90.10
53748;DHT22;39655;53.210;5.768;2023-04-15T05:01:19;5.10;90.20
53748;DHT22;39655;53.210;5.768;2023-04-15T05:03:45;5.10;90.20
53748;DHT22;39655;53.210;5.768;2023-04-15T05:06:10;5.00;90.20
53748;DHT22;39655;53.210;5.768;2023-04-15T05:08:36;5.00;90.60
53748;DHT22;39655;53.210;5.768;2023-04-15T05:11:02;5.00;90.60
53748;DHT22;39655;53.210;5.768;2023-04-15T05:13:28;4.90;90.70
53748;DHT22;39655;53.210;5.768;2023-04-15T05:15:55;4.90;90.60
53748;DHT22;39655;53.210;5.768;2023-04-15T05:18:21;4.90;90.50
53748;DHT22;39655;53.210;5.768;2023-04-15T05:20:46;4.90;90.60
53748;DHT22;39655;53.210;5.768;2023-04-15T05:23:14;4.90;90.60
53748;DHT22;39655;53.210;5.768;2023-04-15T05:25:40;5.00;90.50
53748;DHT22;39655;53.210;5.768;2023-04-15T05:28:06;5.00;90.70
53748;DHT22;39655;53.210;5.768;2023-04-15T05:30:32;5.00;90.80
53748;DHT22;39655;53.210;5.768;2023-04-15T05:32:57;4.90;90.90
53748;DHT22;39655;53.210;5.768;2023-04-15T05:35:23;4.90;90.80
53748;DHT22;39655;53.210;5.768;2023-04-15T05:37:49;4.90;90.80
53748;DHT22;39655;53.210;5.768;2023-04-15T05:40:14;4.90;91.10
53748;DHT22;39655;53.210;5.768;2023-04-15T05:42:40;4.90;90.90
53748;DHT22;39655;53.210;5.768;2023-04-15T05:45:06;5.00;91.00
53748;DHT22;39655;53.210;5.768;2023-04-15T05:47:36;5.00;91.00
53748;DHT22;39655;53.210;5.768;2023-04-15T05:50:10;5.00;91.00
53748;DHT22;39655;53.210;5.768;2023-04-15T05:52:36;5.10;91.10
53748;DHT22;39655;53.210;5.768;2023-04-15T05:55:05;5.10;90.80
53748;DHT22;39655;53.210;5.768;2023-04-15T05:57:30;5.20;91.00
53748;DHT22;39655;53.210;5.768;2023-04-15T05:59:56;5.20;91.10
53748;DHT22;39655;53.210;5.768;2023-04-15T06:02:22;5.30;90.90
53748;DHT22;39655;53.210;5.768;2023-04-15T06:04:47;5.40;91.70
53748;DHT22;39655;53.210;5.768;2023-04-15T06:07:13;5.50;91.70
53748;DHT22;39655;53.210;5.768;2023-04-15T06:09:39;5.50;92.20
53748;DHT22;39655;53.210;5.768;2023-04-15T06:12:05;5.60;92.00
53748;DHT22;39655;53.210;5.768;2023-04-15T06:14:37;5.70;92.10
53748;DHT22;39655;53.210;5.768;2023-04-15T06:17:02;5.80;92.30
53748;DHT22;39655;53.210;5.768;2023-04-15T06:19:28;5.90;91.80
53748;DHT22;39655;53.210;5.768;2023-04-15T06:22:03;6.10;91.90
53748;DHT22;39655;53.210;5.768;2023-04-15T06:24:28;6.30;92.30
53748;DHT22;39655;53.210;5.768;2023-04-15T06:26:54;6.50;92.50
53748;DHT22;39655;53.210;5.768;2023-04-15T06:29:20;6.60;92.30
53748;DHT22;39655;53.210;5.768;2023-04-15T06:31:49;6.80;92.50
53748;DHT22;39655;53.210;5.768;2023-04-15T06:34:14;6.90;91.00
53748;DHT22;39655;53.210;5.768;2023-04-15T06:36:40;7.10;90.90
53748;DHT22;39655;53.210;5.768;2023-04-15T06:39:05;7.30;90.80
53748;DHT22;39655;53.210;5.768;2023-04-15T06:41:31;7.50;90.70
53748;DHT22;39655;53.210;5.768;2023-04-15T06:43:57;7.60;90.50
53748;DHT22;39655;53.210;5.768;2023-04-15T06:46:22;7.80;90.50
53748;DHT22;39655;53.210;5.768;2023-04-15T06:48:51;7.90;90.30
53748;DHT22;39655;53.210;5.768;2023-04-15T06:51:16;8.00;90.50
53748;DHT22;39655;53.210;5.768;2023-04-15T06:53:42;8.10;90.50
53748;DHT22;39655;53.210;5.768;2023-04-15T06:56:13;8.10;89.90
53748;DHT22;39655;53.210;5.768;2023-04-15T06:58:41;8.10;90.10
53748;DHT22;39655;53.210;5.768;2023-04-15T07:01:07;8.20;89.80
53748;DHT22;39655;53.210;5.768;2023-04-15T07:03:32;8.20;89.90
53748;DHT22;39655;53.210;5.768;2023-04-15T07:05:58;8.20;89.90
53748;DHT22;39655;53.210;5.768;2023-04-15T07:08:24;8.30;89.80
53748;DHT22;39655;53.210;5.768;2023-04-15T07:10:50;8.30;90.10
53748;DHT22;39655;53.210;5.768;2023-04-15T07:13:16;8.40;90.00
53748;DHT22;39655;53.210;5.768;2023-04-15T07:15:44;8.50;89.80
53748;DHT22;39655;53.210;5.768;2023-04-15T07:18:10;8.50;89.90
53748;DHT22;39655;53.210;5.768;2023-04-15T07:20:35;8.60;89.70
53748;DHT22;39655;53.210;5.768;2023-04-15T07:23:01;8.70;89.60
53748;DHT22;39655;53.210;5.768;2023-04-15T07:25:27;8.80;89.50
53748;DHT22;39655;53.210;5.768;2023-04-15T07:27:56;8.90;89.40
53748;DHT22;39655;53.210;5.768;2023-04-15T07:30:22;9.00;89.00
53748;DHT22;39655;53.210;5.768;2023-04-15T07:32:48;9.10;88.60
53748;DHT22;39655;53.210;5.768;2023-04-15T07:35:13;9.20;88.10
53748;DHT22;39655;53.210;5.768;2023-04-15T07:37:39;9.40;87.80
53748;DHT22;39655;53.210;5.768;2023-04-15T07:40:06;9.50;86.60
53748;DHT22;39655;53.210;5.768;2023-04-15T07:42:34;9.70;85.70
53748;DHT22;39655;53.210;5.768;2023-04-15T07:44:59;9.80;84.50
53748;DHT22;39655;53.210;5.768;2023-04-15T07:47:25;10.00;83.90
53748;DHT22;39655;53.210;5.768;2023-04-15T07:49:51;10.10;82.70
53748;DHT22;39655;53.210;5.768;2023-04-15T07:52:17;10.20;82.10
53748;DHT22;39655;53.210;5.768;2023-04-15T07:54:44;10.20;81.70
53748;DHT22;39655;53.210;5.768;2023-04-15T07:57:10;10.30;81.10
53748;DHT22;39655;53.210;5.768;2023-04-15T07:59:36;10.40;80.20
53748;DHT22;39655;53.210;5.768;2023-04-15T08:02:02;10.40;79.60
53748;DHT22;39655;53.210;5.768;2023-04-15T08:04:28;10.40;79.00
53748;DHT22;39655;53.210;5.768;2023-04-15T08:06:54;10.40;79.80
53748;DHT22;39655;53.210;5.768;2023-04-15T08:09:19;10.50;79.30
53748;DHT22;39655;53.210;5.768;2023-04-15T08:11:47;10.50;78.60
53748;DHT22;39655;53.210;5.768;2023-04-15T08:14:13;10.40;78.10
53748;DHT22;39655;53.210;5.768;2023-04-15T08:16:39;10.50;78.10
53748;DHT22;39655;53.210;5.768;2023-04-15T08:19:05;10.50;78.30
53748;DHT22;39655;53.210;5.768;2023-04-15T08:21:30;10.50;77.80
53748;DHT22;39655;53.210;5.768;2023-04-15T08:23:56;10.60;77.70
53748;DHT22;39655;53.210;5.768;2023-04-15T08:26:22;10.50;78.20
53748;DHT22;39655;53.210;5.768;2023-04-15T08:28:48;10.40;78.50
53748;DHT22;39655;53.210;5.768;2023-04-15T08:31:15;10.60;78.10
53748;DHT22;39655;53.210;5.768;2023-04-15T08:33:41;10.60;78.00
53748;DHT22;39655;53.210;5.768;2023-04-15T08:36:07;10.60;77.70
53748;DHT22;39655;53.210;5.768;2023-04-15T08:38:34;10.60;77.00
53748;DHT22;39655;53.210;5.768;2023-04-15T08:41:03;10.60;77.30
53748;DHT22;39655;53.210;5.768;2023-04-15T08:43:34;10.60;77.00
53748;DHT22;39655;53.210;5.768;2023-04-15T08:46:00;10.70;77.40
53748;DHT22;39655;53.210;5.768;2023-04-15T08:48:28;10.80;77.20
53748;DHT22;39655;53.210;5.768;2023-04-15T08:50:54;10.90;76.90
53748;DHT22;39655;53.210;5.768;2023-04-15T08:53:20;10.90;76.60
53748;DHT22;39655;53.210;5.768;2023-04-15T08:55:51;10.80;77.00
53748;DHT22;39655;53.210;5.768;2023-04-15T08:58:17;10.70;77.80
53748;DHT22;39655;53.210;5.768;2023-04-15T09:00:44;10.70;77.00
53748;DHT22;39655;53.210;5.768;2023-04-15T09:03:10;10.70;76.80
53748;DHT22;39655;53.210;5.768;2023-04-15T09:05:37;10.70;76.80
53748;DHT22;39655;53.210;5.768;2023-04-15T09:08:04;10.80;77.20
53748;DHT22;39655;53.210;5.768;2023-04-15T09:10:30;10.80;77.20
53748;DHT22;39655;53.210;5.768;2023-04-15T09:12:57;10.80;77.50
53748;DHT22;39655;53.210;5.768;2023-04-15T09:15:25;10.70;77.40
53748;DHT22;39655;53.210;5.768;2023-04-15T09:17:55;10.80;76.60
53748;DHT22;39655;53.210;5.768;2023-04-15T09:20:21;11.00;76.70
53748;DHT22;39655;53.210;5.768;2023-04-15T09:22:51;11.00;75.30
53748;DHT22;39655;53.210;5.768;2023-04-15T09:27:54;11.20;74.80
53748;DHT22;39655;53.210;5.768;2023-04-15T09:30:21;11.30;73.70
53748;DHT22;39655;53.210;5.768;2023-04-15T09:33:00;11.40;74.10
53748;DHT22;39655;53.210;5.768;2023-04-15T09:35:27;11.50;74.20
53748;DHT22;39655;53.210;5.768;2023-04-15T09:38:07;11.70;73.60
53748;DHT22;39655;53.210;5.768;2023-04-15T09:43:01;11.90;72.00
53748;DHT22;39655;53.210;5.768;2023-04-15T09:45:27;11.90;72.50
53748;DHT22;39655;53.210;5.768;2023-04-15T09:47:53;11.90;71.90
53748;DHT22;39655;53.210;5.768;2023-04-15T09:50:19;11.80;72.80
53748;DHT22;39655;53.210;5.768;2023-04-15T09:52:46;11.90;72.40
53748;DHT22;39655;53.210;5.768;2023-04-15T09:55:12;11.90;72.00
53748;DHT22;39655;53.210;5.768;2023-04-15T09:57:39;11.90;72.20
53748;DHT22;39655;53.210;5.768;2023-04-15T10:00:09;12.10;71.80
53748;DHT22;39655;53.210;5.768;2023-04-15T10:02:36;12.10;71.30
53748;DHT22;39655;53.210;5.768;2023-04-15T10:05:02;12.00;70.80
53748;DHT22;39655;53.210;5.768;2023-04-15T10:07:28;11.90;71.40
53748;DHT22;39655;53.210;5.768;2023-04-15T10:09:55;12.00;72.00
53748;DHT22;39655;53.210;5.768;2023-04-15T10:12:21;12.10;72.40
53748;DHT22;39655;53.210;5.768;2023-04-15T10:14:51;12.00;72.30
53748;DHT22;39655;53.210;5.768;2023-04-15T10:17:17;11.90;71.70
53748;DHT22;39655;53.210;5.768;2023-04-15T10:19:47;11.90;71.60
53748;DHT22;39655;53.210;5.768;2023-04-15T10:22:14;11.80;71.30
53748;DHT22;39655;53.210;5.768;2023-04-15T10:24:40;12.10;71.40
53748;DHT22;39655;53.210;5.768;2023-04-15T10:27:07;12.10;71.60
53748;DHT22;39655;53.210;5.768;2023-04-15T10:29:33;12.30;71.40
53748;DHT22;39655;53.210;5.768;2023-04-15T10:32:00;12.50;69.70
53748;DHT22;39655;53.210;5.768;2023-04-15T10:34:27;12.50;69.30
53748;DHT22;39655;53.210;5.768;2023-04-15T10:37:03;12.60;69.90
53748;DHT22;39655;53.210;5.768;2023-04-15T10:42:08;12.50;68.70
53748;DHT22;39655;53.210;5.768;2023-04-15T10:44:37;12.20;68.70
53748;DHT22;39655;53.210;5.768;2023-04-15T10:47:22;12.10;69.30
53748;DHT22;39655;53.210;5.768;2023-04-15T10:49:48;12.20;69.90
53748;DHT22;39655;53.210;5.768;2023-04-15T10:52:16;12.30;70.20
53748;DHT22;39655;53.210;5.768;2023-04-15T10:54:43;12.30;68.80
53748;DHT22;39655;53.210;5.768;2023-04-15T10:57:15;12.10;69.40
53748;DHT22;39655;53.210;5.768;2023-04-15T11:00:03;12.10;69.60
53748;DHT22;39655;53.210;5.768;2023-04-15T11:02:51;12.10;69.30
53748;DHT22;39655;53.210;5.768;2023-04-15T11:05:17;12.40;70.10
53748;DHT22;39655;53.210;5.768;2023-04-15T11:12:46;12.00;70.70
53748;DHT22;39655;53.210;5.768;2023-04-15T11:17:58;11.70;72.40
53748;DHT22;39655;53.210;5.768;2023-04-15T11:20:24;11.60;71.60
53748;DHT22;39655;53.210;5.768;2023-04-15T11:22:52;11.30;73.50
53748;DHT22;39655;53.210;5.768;2023-04-15T11:25:23;11.50;72.60
53748;DHT22;39655;53.210;5.768;2023-04-15T11:27:49;11.40;71.60
53748;DHT22;39655;53.210;5.768;2023-04-15T11:30:22;11.40;71.20
53748;DHT22;39655;53.210;5.768;2023-04-15T11:32:49;11.40;71.10
53748;DHT22;39655;53.210;5.768;2023-04-15T11:35:15;11.40;70.70
53748;DHT22;39655;53.210;5.768;2023-04-15T11:37:42;11.30;71.90
53748;DHT22;39655;53.210;5.768;2023-04-15T11:40:08;11.30;72.80
53748;DHT22;39655;53.210;5.768;2023-04-15T11:42:34;11.30;73.00
53748;DHT22;39655;53.210;5.768;2023-04-15T11:45:13;11.20;73.70
53748;DHT22;39655;53.210;5.768;2023-04-15T11:47:41;11.10;73.10
53748;DHT22;39655;53.210;5.768;2023-04-15T11:50:21;11.10;73.90
53748;DHT22;39655;53.210;5.768;2023-04-15T11:52:56;11.10;74.40
53748;DHT22;39655;53.210;5.768;2023-04-15T11:55:23;11.30;74.30
53748;DHT22;39655;53.210;5.768;2023-04-15T11:58:08;11.40;73.50
53748;DHT22;39655;53.210;5.768;2023-04-15T12:00:34;11.20;74.60
53748;DHT22;39655;53.210;5.768;2023-04-15T12:06:13;11.40;74.60
53748;DHT22;39655;53.210;5.768;2023-04-15T12:11:50;11.10;74.80
53748;DHT22;39655;53.210;5.768;2023-04-15T12:14:30;11.10;74.40
53748;DHT22;39655;53.210;5.768;2023-04-15T12:17:00;11.00;74.90
53748;DHT22;39655;53.210;5.768;2023-04-15T12:19:28;11.10;72.70
53748;DHT22;39655;53.210;5.768;2023-04-15T12:22:05;10.90;73.70
53748;DHT22;39655;53.210;5.768;2023-04-15T12:24:34;10.80;74.70
53748;DHT22;39655;53.210;5.768;2023-04-15T12:27:04;10.70;75.50
53748;DHT22;39655;53.210;5.768;2023-04-15T12:29:32;10.80;75.10
53748;DHT22;39655;53.210;5.768;2023-04-15T12:32:12;10.70;74.30
53748;DHT22;39655;53.210;5.768;2023-04-15T12:34:40;10.70;74.20
53748;DHT22;39655;53.210;5.768;2023-04-15T12:37:11;10.70;74.60
53748;DHT22;39655;53.210;5.768;2023-04-15T12:39:39;10.80;74.00
53748;DHT22;39655;53.210;5.768;2023-04-15T12:42:06;10.60;74.60
53748;DHT22;39655;53.210;5.768;2023-04-15T12:44:32;10.40;75.60
53748;DHT22;39655;53.210;5.768;2023-04-15T12:46:58;10.40;76.00
53748;DHT22;39655;53.210;5.768;2023-04-15T12:49:24;10.40;76.00
53748;DHT22;39655;53.210;5.768;2023-04-15T12:51:56;10.40;76.00
53748;DHT22;39655;53.210;5.768;2023-04-15T12:54:22;10.30;76.50
53748;DHT22;39655;53.210;5.768;2023-04-15T12:56:49;10.20;77.50
53748;DHT22;39655;53.210;5.768;2023-04-15T12:59:15;10.20;77.40
53748;DHT22;39655;53.210;5.768;2023-04-15T13:01:43;10.30;77.50
53748;DHT22;39655;53.210;5.768;2023-04-15T13:04:09;10.30;77.70
53748;DHT22;39655;53.210;5.768;2023-04-15T13:06:35;10.20;77.10
53748;DHT22;39655;53.210;5.768;2023-04-15T13:09:01;10.10;78.00
53748;DHT22;39655;53.210;5.768;2023-04-15T13:11:28;10.20;77.80
53748;DHT22;39655;53.210;5.768;2023-04-15T13:13:56;10.10;78.30
53748;DHT22;39655;53.210;5.768;2023-04-15T13:16:22;10.10;78.60
53748;DHT22;39655;53.210;5.768;2023-04-15T13:18:49;10.10;78.10
53748;DHT22;39655;53.210;5.768;2023-04-15T13:21:15;10.10;77.50
53748;DHT22;39655;53.210;5.768;2023-04-15T13:23:41;10.20;76.90
53748;DHT22;39655;53.210;5.768;2023-04-15T13:26:07;10.10;77.70
53748;DHT22;39655;53.210;5.768;2023-04-15T13:28:33;10.10;77.60
53748;DHT22;39655;53.210;5.768;2023-04-15T13:30:58;10.10;77.60
53748;DHT22;39655;53.210;5.768;2023-04-15T13:33:25;10.10;77.00
53748;DHT22;39655;53.210;5.768;2023-04-15T13:35:50;10.10;77.60
53748;DHT22;39655;53.210;5.768;2023-04-15T13:38:16;10.00;77.50
53748;DHT22;39655;53.210;5.768;2023-04-15T13:40:42;10.10;77.40
53748;DHT22;39655;53.210;5.768;2023-04-15T13:43:07;10.10;77.00
53748;DHT22;39655;53.210;5.768;2023-04-15T13:45:33;10.10;77.50
53748;DHT22;39655;53.210;5.768;2023-04-15T13:47:59;10.20;77.30
53748;DHT22;39655;53.210;5.768;2023-04-15T13:50:24;10.10;77.40
53748;DHT22;39655;53.210;5.768;2023-04-15T13:52:50;10.00;77.50
53748;DHT22;39655;53.210;5.768;2023-04-15T13:55:16;10.10;77.70
53748;DHT22;39655;53.210;5.768;2023-04-15T13:57:41;10.20;77.10
53748;DHT22;39655;53.210;5.768;2023-04-15T14:00:07;10.20;77.50
53748;DHT22;39655;53.210;5.768;2023-04-15T14:02:33;10.10;77.00
53748;DHT22;39655;53.210;5.768;2023-04-15T14:04:59;10.10;77.30
53748;DHT22;39655;53.210;5.768;2023-04-15T14:07:25;9.90;77.90
53748;DHT22;39655;53.210;5.768;2023-04-15T14:09:50;9.80;78.10
53748;DHT22;39655;53.210;5.768;2023-04-15T14:12:16;9.80;78.20
53748;DHT22;39655;53.210;5.768;2023-04-15T14:14:42;9.90;78.30
53748;DHT22;39655;53.210;5.768;2023-04-15T14:17:07;10.00;78.10
53748;DHT22;39655;53.210;5.768;2023-04-15T14:19:34;10.10;77.70
53748;DHT22;39655;53.210;5.768;2023-04-15T14:22:00;10.10;77.90
53748;DHT22;39655;53.210;5.768;2023-04-15T14:24:25;9.90;78.90
53748;DHT22;39655;53.210;5.768;2023-04-15T14:26:52;10.10;78.90
53748;DHT22;39655;53.210;5.768;2023-04-15T14:29:18;10.10;78.30
53748;DHT22;39655;53.210;5.768;2023-04-15T14:31:44;10.10;78.90
53748;DHT22;39655;53.210;5.768;2023-04-15T14:34:10;10.10;77.70
53748;DHT22;39655;53.210;5.768;2023-04-15T14:36:36;10.00;77.90
53748;DHT22;39655;53.210;5.768;2023-04-15T14:39:02;10.00;77.60
53748;DHT22;39655;53.210;5.768;2023-04-15T14:41:28;10.00;77.60
53748;DHT22;39655;53.210;5.768;2023-04-15T14:43:56;9.90;78.00
53748;DHT22;39655;53.210;5.768;2023-04-15T14:46:22;9.90;78.40
53748;DHT22;39655;53.210;5.768;2023-04-15T14:48:48;9.90;78.20
53748;DHT22;39655;53.210;5.768;2023-04-15T14:51:14;10.00;78.70
53748;DHT22;39655;53.210;5.768;2023-04-15T14:53:40;10.10;77.90
53748;DHT22;39655;53.210;5.768;2023-04-15T14:56:06;9.90;77.80
53748;DHT22;39655;53.210;5.768;2023-04-15T14:58:32;9.90;77.70
53748;DHT22;39655;53.210;5.768;2023-04-15T15:00:58;9.90;78.10
53748;DHT22;39655;53.210;5.768;2023-04-15T15:03:24;9.90;77.80
53748;DHT22;39655;53.210;5.768;2023-04-15T15:05:50;9.80;78.30
53748;DHT22;39655;53.210;5.768;2023-04-15T15:08:15;9.80;78.50
53748;DHT22;39655;53.210;5.768;2023-04-15T15:10:41;9.80;79.10
53748;DHT22;39655;53.210;5.768;2023-04-15T15:13:08;9.80;79.40
53748;DHT22;39655;53.210;5.768;2023-04-15T15:15:37;9.90;78.60
53748;DHT22;39655;53.210;5.768;2023-04-15T15:18:03;9.90;78.30
53748;DHT22;39655;53.210;5.768;2023-04-15T15:20:29;9.80;78.20
53748;DHT22;39655;53.210;5.768;2023-04-15T15:22:55;9.80;78.90
53748;DHT22;39655;53.210;5.768;2023-04-15T15:25:21;9.80;78.90
53748;DHT22;39655;53.210;5.768;2023-04-15T15:27:47;9.80;78.90
53748;DHT22;39655;53.210;5.768;2023-04-15T15:30:13;9.80;79.20
53748;DHT22;39655;53.210;5.768;2023-04-15T15:35:14;9.90;79.20
53748;DHT22;39655;53.210;5.768;2023-04-15T15:37:41;9.90;79.40
53748;DHT22;39655;53.210;5.768;2023-04-15T15:40:08;9.90;79.40
53748;DHT22;39655;53.210;5.768;2023-04-15T15:42:34;9.90;79.40
53748;DHT22;39655;53.210;5.768;2023-04-15T15:45:00;9.70;79.60
53748;DHT22;39655;53.210;5.768;2023-04-15T15:47:25;9.70;80.40
53748;DHT22;39655;53.210;5.768;2023-04-15T15:49:52;9.70;80.50
53748;DHT22;39655;53.210;5.768;2023-04-15T15:52:18;9.70;80.60
53748;DHT22;39655;53.210;5.768;2023-04-15T15:54:43;9.80;80.20
53748;DHT22;39655;53.210;5.768;2023-04-15T15:57:09;9.60;80.70
53748;DHT22;39655;53.210;5.768;2023-04-15T15:59:35;9.60;80.70
53748;DHT22;39655;53.210;5.768;2023-04-15T16:02:07;9.60;80.80